South-central Hudson - eastern half: Past 24 Hour Conditions

 

Pangnirtung Airport

01:00 AM EST 27 November 2014
This table is a summary of hourly weather conditions for the past 24 hours.
Date / Time
(EST)
Wind(knots) Conditions Visibility(km) Pressure(kPa) Air tempC) Relative humidity(%) Dew pointC) Wind Chill
27 November 2014
1:00 SE 5 N/A N/A 100.4 -16 60 -22 -22
0:00 SE 6 N/A N/A 100.4 -16 64 -21 -23
26 November 2014
23:00 ESE 6 N/A N/A 100.4 -17 68 -22 -24
22:00 SE 9 N/A N/A 100.4 -16 65 -22 -25
21:00 SSE 9 gust 15 N/A N/A 100.4 -16 72 -20 -25
20:00 S 8 Light Snow 19 100.4 -16 75 -19 -24
19:00 S 6 Light Snow 19 100.4 -15 75 -19 -22
18:00 S 4 Light Snow 16 100.3 -16 75 -20 -22
17:00 S 6 Light Snow 16 100.3 -17 79 -19 -23
16:00 W 9 Light Snow 13 100.3 -16 78 -19 -24
15:00 W 11 Light Snow 13 100.2 -15 77 -19 -25
14:00 W 13 Light Snow 13 100.1 -15 77 -18 -25
13:00 WSW 13 Light Snow 11 100.1 -15 79 -17 -25
12:00 WSW 11 gust 18 Light Snow 11 100.0 -14 81 -17 -23
11:00 W 14 Light Snow 8 100.0 -14 79 -17 -24
10:00 WSW 9 Light Snow 8 100.0 -13 80 -16 -21
9:00 WSW 11 Light Snow 8 99.9 -13 80 -16 -22
8:00 WSW 10 Light Snow 10 99.9 -13 83 -15 -21
7:00 WSW 11 Light Snow 10 99.9 -13 82 -15 -21
6:00 WSW 9 N/A N/A 99.8 -12 83 -15 -20
5:00 SW 2 N/A N/A 99.8 -12 82 -15 -15
4:00 SE 4 N/A N/A 99.8 -12 82 -15 -17
3:00 WSW 9 N/A N/A 99.8 -12 86 -14 -20
2:00 SW 5 Light Snow 13 99.8 -12 81 -14 -16
1:00 SW 3 Light Snow 10 99.7 -11 84 -13 -15
 
Map of Arctic - Eastern Arctic marine weather areas Baker Lake Airport Chesterfield Inlet Airport Coral Harbour Airport Gjoa Haven Airport Kugaaruk Airport Rankin Inlet Airport Shepherd Bay Airport Whale Cove Airport Arctic Bay Brevoort Island Qikiqtarjuaq Airport Cape Dorset Airport Cape Dyer Cape Hooper Clyde Airport Grise Fiord Airport Hall Beach Airport Igloolik Airport Iqaluit Airport Longstaff Bluff Pangnirtung Airport Pond Inlet Airport Repulse Bay Airport Resolute Airport Resolution Island Rowley Island Airport Taloyoak Airport Wager Bay Akulivik Airport Ivujivik Airport Puvirnituq Airport Kangiqsujuaq Airport Kangirsuk Airport Quaqtaq Airport Tasiujaq Airport Cape Kakkiviak Cape Kiglapait Nain Airport Saglek Cape Mercy Kimmirut Airport Aupaluk Airport Salluit Airport Kangiqsualujjuaq Airport Fort Ross
Legend: buoyBuoy land stationLand Station